Pas de vigilance météorologique particulière.    Il n'y a aucun avertissement
Nontron en périgord vert

Webcam Lo Malatio more information Webcam Lo Malatio


Thunder radar more information blitzortung!


Rain radar  rain snow radar



Rapports METAR proximité

   
EBAW - Antwerp
Mise à jour: 19-11-2017 14:50
Partiellement nuageux  
Partiellement nuageux  
   Vent: ONO 24.1 km/h
Vent: ONO 24.1 km/h
Température: 9°C
éolien: 6°C
Point de rosée: 4°C
Humidité: 71%
Baromètre: 1020 hPa
Nuageux: Partiellement nuageux
visibilité: More than 10 km
Détails des nuages: Partiellement nuageux 701 m,
Partiellement nuageux 1066.8 m
EBAW 191350Z 29013KT 9999 SCT023 SCT035 09/04 Q1020 NOSIG
EBLG - Liège
Mise à jour: 19-11-2017 14:50
Peu de nuages  
Peu de nuages  
   Vent: Ouest 18.5 km/h
Vent: Ouest 18.5 km/h
Température: 6°C
éolien: 3°C
Point de rosée: 3°C
Humidité: 81%
Baromètre: 1020 hPa
Nuageux: Peu de nuages
visibilité: More than 10 km
Détails des nuages: Peu de nuages 640.1 m
EBLG 191350Z 28010KT 9999 FEW021 06/03 Q1020 NOSIG
EBCV - Mons/Bergen
Mise à jour: 19-11-2017 14:55
Peu de nuages  
Peu de nuages  
   Vent: ONO 18.5 km/h
Vent: ONO 18.5 km/h
Température: 7°C
éolien: 4°C
Point de rosée: 3°C
Humidité: 76%
Baromètre: 1022 hPa
Nuageux: Peu de nuages
visibilité: More than 10 km
Détails des nuages: Peu de nuages 1036.3 m
EBCV 191355Z AUTO 29010KT 9999 FEW034/// 07/03 Q1022 BLU
EHBK - Maastricht
Mise à jour: 19-11-2017 14:55
Nuageux  
Nuageux  
   Vent: Ouest 14.8 km/h
Vent: Ouest 14.8 km/h
Température: 8°C
éolien: 6°C
Point de rosée: 4°C
Humidité: 76%
Baromètre: 1019 hPa
Nuageux: Nuageux
visibilité: More than 10 km
Détails des nuages: Nuageux 579.1 m
EHBK 191355Z AUTO 27008KT 210V330 9999 BKN019 08/04 Q1019 TEMPO 7000 -SHRA FEW025TCU
ELLX - Luxemburg
Mise à jour: 19-11-2017 14:50
Nuageux  
Nuageux  
   Vent: Ouest 14.8 km/h
Vent: Ouest 14.8 km/h
Température: 6°C
éolien: 3°C
Point de rosée: 1°C
Humidité: 71%
Baromètre: 1020 hPa
Nuageux: Nuageux
visibilité: More than 10 km
Détails des nuages: Peu de nuages 853.4 m,
Nuageux 1402.1 m
ELLX 191350Z 28008KT 250V320 9999 FEW028 BKN046 06/01 Q1020 NOSIG
EBOS - Oostende
Mise à jour: 19-11-2017 14:50
Partiellement nuageux  
Partiellement nuageux  
   Vent: ONO 16.7 km/h
Vent: ONO 16.7 km/h
Température: 8°C
éolien: 5°C
Point de rosée: 2°C
Humidité: 66%
Baromètre: 1022 hPa
Nuageux: Partiellement nuageux
visibilité: More than 10 km
Détails des nuages: Partiellement nuageux 975.4 m
EBOS 191350Z 30009KT 9999 SCT032 08/02 Q1022 NOSIG

Script développé par  Saratoga-weather.org Adapté pour le modèle par  Weerstation Leuven

Vous trouverez notre info météo Également à:

WeatherCloud

Weather Underground

AWEKAS

Citizen Weather Observer Program (CWOP)

Équipement que nous utilisons:

Station de Météo
Davis VP2

Programme Météo
WeatherCat

Ordinateur Météo
Mac mini

Provider
o2switch

Davis VP2

WeatherCat

Mac mini

o2switch


Profile for microquant